Korla, China
Current Conditions -  °F | °C
As of 8:00 PM on Wednesday 28 Jan 2015 (Local Time) from ZWWW Reporting Station
Haze Haze  
Wind Chill:   Ceiling: Unl
Heat Index:   Visibility: 1mi
Dew Point: -4°   Wind: 2mph
Humidity: 85%   Direction: 350°N
Pressure: 30.59"   Gusts: NA
Location:  41.73°N, 86.15°E
Report Text: ZWWW 281200Z 35001MPS 1600 BR NSC M18/M20 Q1036 NOSIG
Loading
Personal Weather Stations






























Interactive Weather Map New forecast layout! Learn more

10-Day Weather Forecast

Advertisements
Track Severe Weather on mobile